sensor_id;sensor_type;location;lat;lon;timestamp;P1;durP1;ratioP1;P2;durP2;ratioP2
8066;SDS011;4076;48.076;9.118;2023-07-08T00:01:21;6.37;;;4.43;;
8066;SDS011;4076;48.076;9.118;2023-07-08T00:03:47;7.70;;;5.17;;
8066;SDS011;4076;48.076;9.118;2023-07-08T00:06:18;7.07;;;4.83;;
8066;SDS011;4076;48.076;9.118;2023-07-08T00:08:48;6.90;;;4.43;;
8066;SDS011;4076;48.076;9.118;2023-07-08T00:11:13;6.87;;;4.33;;
8066;SDS011;4076;48.076;9.118;2023-07-08T00:13:40;13.80;;;5.80;;
8066;SDS011;4076;48.076;9.118;2023-07-08T00:16:13;10.43;;;6.57;;
8066;SDS011;4076;48.076;9.118;2023-07-08T00:18:41;8.30;;;4.63;;
8066;SDS011;4076;48.076;9.118;2023-07-08T00:21:11;7.63;;;5.37;;
8066;SDS011;4076;48.076;9.118;2023-07-08T00:23:40;6.97;;;3.80;;
8066;SDS011;4076;48.076;9.118;2023-07-08T00:26:21;7.03;;;5.13;;
8066;SDS011;4076;48.076;9.118;2023-07-08T00:28:49;7.33;;;4.93;;
8066;SDS011;4076;48.076;9.118;2023-07-08T00:31:16;7.97;;;5.20;;
8066;SDS011;4076;48.076;9.118;2023-07-08T00:33:42;8.83;;;6.40;;
8066;SDS011;4076;48.076;9.118;2023-07-08T00:36:11;7.17;;;5.17;;
8066;SDS011;4076;48.076;9.118;2023-07-08T00:38:39;8.80;;;5.43;;
8066;SDS011;4076;48.076;9.118;2023-07-08T00:41:11;6.73;;;6.10;;
8066;SDS011;4076;48.076;9.118;2023-07-08T00:43:49;6.63;;;4.83;;
8066;SDS011;4076;48.076;9.118;2023-07-08T00:46:18;8.00;;;5.10;;
8066;SDS011;4076;48.076;9.118;2023-07-08T00:51:37;6.53;;;4.33;;
8066;SDS011;4076;48.076;9.118;2023-07-08T00:54:04;13.00;;;5.27;;
8066;SDS011;4076;48.076;9.118;2023-07-08T00:56:36;6.17;;;4.63;;
8066;SDS011;4076;48.076;9.118;2023-07-08T00:59:11;9.23;;;5.87;;
8066;SDS011;4076;48.076;9.118;2023-07-08T01:01:58;6.37;;;3.83;;
8066;SDS011;4076;48.076;9.118;2023-07-08T01:04:33;8.13;;;5.37;;
8066;SDS011;4076;48.076;9.118;2023-07-08T01:07:04;7.40;;;5.20;;
8066;SDS011;4076;48.076;9.118;2023-07-08T01:09:33;7.90;;;4.93;;
8066;SDS011;4076;48.076;9.118;2023-07-08T01:12:07;9.33;;;6.03;;
8066;SDS011;4076;48.076;9.118;2023-07-08T01:14:37;8.30;;;6.50;;
8066;SDS011;4076;48.076;9.118;2023-07-08T01:17:07;8.20;;;4.40;;
8066;SDS011;4076;48.076;9.118;2023-07-08T01:19:39;8.37;;;6.00;;
8066;SDS011;4076;48.076;9.118;2023-07-08T01:22:06;7.63;;;4.90;;
8066;SDS011;4076;48.076;9.118;2023-07-08T01:24:33;9.90;;;6.17;;
8066;SDS011;4076;48.076;9.118;2023-07-08T01:27:01;8.40;;;5.67;;
8066;SDS011;4076;48.076;9.118;2023-07-08T01:29:29;7.57;;;5.33;;
8066;SDS011;4076;48.076;9.118;2023-07-08T01:31:55;11.00;;;7.10;;
8066;SDS011;4076;48.076;9.118;2023-07-08T01:34:22;8.07;;;5.10;;
8066;SDS011;4076;48.076;9.118;2023-07-08T01:36:49;7.30;;;5.53;;
8066;SDS011;4076;48.076;9.118;2023-07-08T01:39:19;8.73;;;5.60;;
8066;SDS011;4076;48.076;9.118;2023-07-08T01:41:46;10.13;;;6.70;;
8066;SDS011;4076;48.076;9.118;2023-07-08T01:44:22;7.97;;;4.90;;
8066;SDS011;4076;48.076;9.118;2023-07-08T01:47:09;8.07;;;5.10;;
8066;SDS011;4076;48.076;9.118;2023-07-08T01:49:39;7.13;;;4.33;;
8066;SDS011;4076;48.076;9.118;2023-07-08T01:52:07;5.43;;;4.27;;
8066;SDS011;4076;48.076;9.118;2023-07-08T01:54:33;8.63;;;5.93;;
8066;SDS011;4076;48.076;9.118;2023-07-08T01:56:59;6.20;;;5.07;;
8066;SDS011;4076;48.076;9.118;2023-07-08T01:59:25;6.13;;;4.60;;
8066;SDS011;4076;48.076;9.118;2023-07-08T02:01:51;7.77;;;4.90;;
8066;SDS011;4076;48.076;9.118;2023-07-08T02:04:20;9.70;;;6.20;;
8066;SDS011;4076;48.076;9.118;2023-07-08T02:06:56;7.10;;;5.10;;
8066;SDS011;4076;48.076;9.118;2023-07-08T02:09:24;9.40;;;6.73;;
8066;SDS011;4076;48.076;9.118;2023-07-08T02:11:50;8.60;;;7.20;;
8066;SDS011;4076;48.076;9.118;2023-07-08T02:14:19;8.97;;;6.00;;
8066;SDS011;4076;48.076;9.118;2023-07-08T02:16:45;11.50;;;6.73;;
8066;SDS011;4076;48.076;9.118;2023-07-08T02:19:11;9.73;;;5.70;;
8066;SDS011;4076;48.076;9.118;2023-07-08T02:21:37;10.10;;;6.07;;
8066;SDS011;4076;48.076;9.118;2023-07-08T02:24:03;12.10;;;7.20;;
8066;SDS011;4076;48.076;9.118;2023-07-08T02:26:29;9.20;;;5.50;;
8066;SDS011;4076;48.076;9.118;2023-07-08T02:28:57;10.30;;;6.90;;
8066;SDS011;4076;48.076;9.118;2023-07-08T02:31:23;7.43;;;4.67;;
8066;SDS011;4076;48.076;9.118;2023-07-08T02:33:49;7.03;;;5.27;;
8066;SDS011;4076;48.076;9.118;2023-07-08T02:36:15;8.87;;;5.20;;
8066;SDS011;4076;48.076;9.118;2023-07-08T02:38:41;6.27;;;4.90;;
8066;SDS011;4076;48.076;9.118;2023-07-08T02:41:07;7.00;;;5.03;;
8066;SDS011;4076;48.076;9.118;2023-07-08T02:43:32;6.83;;;6.10;;
8066;SDS011;4076;48.076;9.118;2023-07-08T02:45:58;9.50;;;6.63;;
8066;SDS011;4076;48.076;9.118;2023-07-08T02:48:23;8.33;;;5.20;;
8066;SDS011;4076;48.076;9.118;2023-07-08T02:50:49;9.53;;;5.57;;
8066;SDS011;4076;48.076;9.118;2023-07-08T02:53:14;11.33;;;6.17;;
8066;SDS011;4076;48.076;9.118;2023-07-08T02:55:40;8.20;;;5.30;;
8066;SDS011;4076;48.076;9.118;2023-07-08T02:58:07;8.77;;;5.57;;
8066;SDS011;4076;48.076;9.118;2023-07-08T03:00:36;8.60;;;4.80;;
8066;SDS011;4076;48.076;9.118;2023-07-08T03:03:02;10.97;;;5.37;;
8066;SDS011;4076;48.076;9.118;2023-07-08T03:05:28;11.93;;;7.73;;
8066;SDS011;4076;48.076;9.118;2023-07-08T03:07:55;8.00;;;6.40;;
8066;SDS011;4076;48.076;9.118;2023-07-08T03:10:21;9.23;;;5.83;;
8066;SDS011;4076;48.076;9.118;2023-07-08T03:12:47;9.17;;;5.63;;
8066;SDS011;4076;48.076;9.118;2023-07-08T03:15:12;10.17;;;5.40;;
8066;SDS011;4076;48.076;9.118;2023-07-08T03:17:38;9.27;;;6.00;;
8066;SDS011;4076;48.076;9.118;2023-07-08T03:20:03;11.77;;;6.47;;
8066;SDS011;4076;48.076;9.118;2023-07-08T03:22:31;7.97;;;5.90;;
8066;SDS011;4076;48.076;9.118;2023-07-08T03:24:56;9.00;;;5.30;;
8066;SDS011;4076;48.076;9.118;2023-07-08T03:27:22;6.23;;;4.90;;
8066;SDS011;4076;48.076;9.118;2023-07-08T03:29:47;8.00;;;4.20;;
8066;SDS011;4076;48.076;9.118;2023-07-08T03:32:13;8.43;;;5.57;;
8066;SDS011;4076;48.076;9.118;2023-07-08T03:34:38;12.80;;;5.63;;
8066;SDS011;4076;48.076;9.118;2023-07-08T03:37:04;7.57;;;5.10;;
8066;SDS011;4076;48.076;9.118;2023-07-08T03:39:30;7.73;;;5.50;;
8066;SDS011;4076;48.076;9.118;2023-07-08T03:41:57;6.93;;;4.90;;
8066;SDS011;4076;48.076;9.118;2023-07-08T03:44:22;9.37;;;5.53;;
8066;SDS011;4076;48.076;9.118;2023-07-08T03:46:48;8.77;;;5.13;;
8066;SDS011;4076;48.076;9.118;2023-07-08T03:49:14;6.90;;;4.30;;
8066;SDS011;4076;48.076;9.118;2023-07-08T03:51:41;10.20;;;5.50;;
8066;SDS011;4076;48.076;9.118;2023-07-08T03:54:11;7.50;;;4.87;;
8066;SDS011;4076;48.076;9.118;2023-07-08T03:56:38;8.60;;;5.20;;
8066;SDS011;4076;48.076;9.118;2023-07-08T03:59:04;11.50;;;6.90;;
8066;SDS011;4076;48.076;9.118;2023-07-08T04:01:30;6.97;;;4.43;;
8066;SDS011;4076;48.076;9.118;2023-07-08T04:03:56;9.77;;;6.00;;
8066;SDS011;4076;48.076;9.118;2023-07-08T04:06:23;7.43;;;6.63;;
8066;SDS011;4076;48.076;9.118;2023-07-08T04:08:50;6.63;;;4.43;;
8066;SDS011;4076;48.076;9.118;2023-07-08T04:11:17;8.70;;;5.30;;
8066;SDS011;4076;48.076;9.118;2023-07-08T04:13:45;9.30;;;5.97;;
8066;SDS011;4076;48.076;9.118;2023-07-08T04:16:15;5.60;;;4.43;;
8066;SDS011;4076;48.076;9.118;2023-07-08T04:18:41;8.80;;;5.73;;
8066;SDS011;4076;48.076;9.118;2023-07-08T04:21:07;9.27;;;5.47;;
8066;SDS011;4076;48.076;9.118;2023-07-08T04:23:32;11.87;;;7.53;;
8066;SDS011;4076;48.076;9.118;2023-07-08T04:25:58;7.60;;;5.30;;
8066;SDS011;4076;48.076;9.118;2023-07-08T04:28:24;9.50;;;6.70;;
8066;SDS011;4076;48.076;9.118;2023-07-08T04:30:50;8.50;;;5.03;;
8066;SDS011;4076;48.076;9.118;2023-07-08T04:33:16;6.70;;;4.87;;
8066;SDS011;4076;48.076;9.118;2023-07-08T04:35:41;7.70;;;4.83;;
8066;SDS011;4076;48.076;9.118;2023-07-08T04:38:16;7.67;;;5.77;;
8066;SDS011;4076;48.076;9.118;2023-07-08T04:40:47;5.70;;;4.97;;
8066;SDS011;4076;48.076;9.118;2023-07-08T04:43:13;7.57;;;4.73;;
8066;SDS011;4076;48.076;9.118;2023-07-08T04:45:39;7.67;;;4.97;;
8066;SDS011;4076;48.076;9.118;2023-07-08T04:48:07;8.30;;;5.37;;
8066;SDS011;4076;48.076;9.118;2023-07-08T04:50:43;7.33;;;5.07;;
8066;SDS011;4076;48.076;9.118;2023-07-08T04:53:11;8.10;;;5.30;;
8066;SDS011;4076;48.076;9.118;2023-07-08T04:55:44;8.67;;;5.23;;
8066;SDS011;4076;48.076;9.118;2023-07-08T04:58:16;8.33;;;4.93;;
8066;SDS011;4076;48.076;9.118;2023-07-08T05:00:41;8.27;;;5.47;;
8066;SDS011;4076;48.076;9.118;2023-07-08T05:03:07;6.93;;;5.60;;
8066;SDS011;4076;48.076;9.118;2023-07-08T05:05:33;8.33;;;4.90;;
8066;SDS011;4076;48.076;9.118;2023-07-08T05:07:59;7.90;;;5.40;;
8066;SDS011;4076;48.076;9.118;2023-07-08T05:10:27;9.90;;;6.60;;
8066;SDS011;4076;48.076;9.118;2023-07-08T05:12:52;11.00;;;6.20;;
8066;SDS011;4076;48.076;9.118;2023-07-08T05:15:18;9.60;;;6.33;;
8066;SDS011;4076;48.076;9.118;2023-07-08T05:17:43;9.73;;;6.80;;
8066;SDS011;4076;48.076;9.118;2023-07-08T05:20:10;11.10;;;8.67;;
8066;SDS011;4076;48.076;9.118;2023-07-08T05:22:39;13.07;;;6.77;;
8066;SDS011;4076;48.076;9.118;2023-07-08T05:25:05;12.10;;;6.87;;
8066;SDS011;4076;48.076;9.118;2023-07-08T05:27:31;11.70;;;7.53;;
8066;SDS011;4076;48.076;9.118;2023-07-08T05:30:00;10.00;;;6.23;;
8066;SDS011;4076;48.076;9.118;2023-07-08T05:32:27;7.57;;;4.87;;
8066;SDS011;4076;48.076;9.118;2023-07-08T05:34:52;6.43;;;5.00;;
8066;SDS011;4076;48.076;9.118;2023-07-08T05:37:18;6.00;;;4.80;;
8066;SDS011;4076;48.076;9.118;2023-07-08T05:39:48;8.73;;;5.37;;
8066;SDS011;4076;48.076;9.118;2023-07-08T05:42:14;6.07;;;3.80;;
8066;SDS011;4076;48.076;9.118;2023-07-08T05:44:40;6.47;;;4.50;;
8066;SDS011;4076;48.076;9.118;2023-07-08T05:47:05;9.37;;;5.87;;
8066;SDS011;4076;48.076;9.118;2023-07-08T05:49:31;8.13;;;5.10;;
8066;SDS011;4076;48.076;9.118;2023-07-08T05:51:57;7.13;;;5.60;;
8066;SDS011;4076;48.076;9.118;2023-07-08T05:54:22;9.00;;;5.50;;
8066;SDS011;4076;48.076;9.118;2023-07-08T05:56:48;7.60;;;4.73;;
8066;SDS011;4076;48.076;9.118;2023-07-08T05:59:13;7.70;;;5.03;;
8066;SDS011;4076;48.076;9.118;2023-07-08T06:01:39;7.70;;;6.33;;
8066;SDS011;4076;48.076;9.118;2023-07-08T06:04:04;8.20;;;6.47;;
8066;SDS011;4076;48.076;9.118;2023-07-08T06:06:30;7.20;;;5.40;;
8066;SDS011;4076;48.076;9.118;2023-07-08T06:08:55;11.17;;;5.40;;
8066;SDS011;4076;48.076;9.118;2023-07-08T06:11:21;8.90;;;4.50;;
8066;SDS011;4076;48.076;9.118;2023-07-08T06:13:47;8.73;;;5.93;;
8066;SDS011;4076;48.076;9.118;2023-07-08T06:16:13;9.00;;;6.17;;
8066;SDS011;4076;48.076;9.118;2023-07-08T06:18:38;6.27;;;4.57;;
8066;SDS011;4076;48.076;9.118;2023-07-08T06:21:04;7.50;;;5.50;;
8066;SDS011;4076;48.076;9.118;2023-07-08T06:23:30;8.23;;;6.60;;
8066;SDS011;4076;48.076;9.118;2023-07-08T06:25:56;9.90;;;6.60;;
8066;SDS011;4076;48.076;9.118;2023-07-08T06:28:22;8.73;;;6.10;;
8066;SDS011;4076;48.076;9.118;2023-07-08T06:30:48;9.20;;;6.87;;
8066;SDS011;4076;48.076;9.118;2023-07-08T06:33:14;11.83;;;6.00;;
8066;SDS011;4076;48.076;9.118;2023-07-08T06:35:40;8.10;;;5.20;;
8066;SDS011;4076;48.076;9.118;2023-07-08T06:38:07;7.37;;;5.87;;
8066;SDS011;4076;48.076;9.118;2023-07-08T06:40:33;7.03;;;5.33;;
8066;SDS011;4076;48.076;9.118;2023-07-08T06:42:59;9.27;;;5.43;;
8066;SDS011;4076;48.076;9.118;2023-07-08T06:45:25;7.43;;;5.10;;
8066;SDS011;4076;48.076;9.118;2023-07-08T06:47:50;11.93;;;5.90;;
8066;SDS011;4076;48.076;9.118;2023-07-08T06:50:16;9.13;;;6.80;;
8066;SDS011;4076;48.076;9.118;2023-07-08T06:52:42;6.83;;;5.43;;
8066;SDS011;4076;48.076;9.118;2023-07-08T06:55:08;7.40;;;5.13;;
8066;SDS011;4076;48.076;9.118;2023-07-08T06:57:35;7.00;;;4.50;;
8066;SDS011;4076;48.076;9.118;2023-07-08T07:00:03;5.30;;;3.80;;
8066;SDS011;4076;48.076;9.118;2023-07-08T07:02:30;6.07;;;4.40;;
8066;SDS011;4076;48.076;9.118;2023-07-08T07:04:56;9.23;;;7.37;;
8066;SDS011;4076;48.076;9.118;2023-07-08T07:07:21;9.33;;;6.07;;
8066;SDS011;4076;48.076;9.118;2023-07-08T07:09:47;8.70;;;5.57;;
8066;SDS011;4076;48.076;9.118;2023-07-08T07:12:12;12.70;;;6.93;;
8066;SDS011;4076;48.076;9.118;2023-07-08T07:14:38;9.20;;;4.97;;
8066;SDS011;4076;48.076;9.118;2023-07-08T07:17:04;8.07;;;4.93;;
8066;SDS011;4076;48.076;9.118;2023-07-08T07:19:30;6.40;;;4.90;;
8066;SDS011;4076;48.076;9.118;2023-07-08T07:21:55;7.47;;;4.90;;
8066;SDS011;4076;48.076;9.118;2023-07-08T07:24:21;9.87;;;6.80;;
8066;SDS011;4076;48.076;9.118;2023-07-08T07:26:46;7.27;;;4.67;;
8066;SDS011;4076;48.076;9.118;2023-07-08T07:29:16;7.93;;;3.93;;
8066;SDS011;4076;48.076;9.118;2023-07-08T07:31:42;8.77;;;5.60;;
8066;SDS011;4076;48.076;9.118;2023-07-08T07:34:08;6.87;;;4.40;;
8066;SDS011;4076;48.076;9.118;2023-07-08T07:36:36;9.03;;;5.60;;
8066;SDS011;4076;48.076;9.118;2023-07-08T07:39:02;7.73;;;5.50;;
8066;SDS011;4076;48.076;9.118;2023-07-08T07:41:27;8.03;;;5.80;;
8066;SDS011;4076;48.076;9.118;2023-07-08T07:43:53;6.80;;;4.90;;
8066;SDS011;4076;48.076;9.118;2023-07-08T07:46:19;7.27;;;6.20;;
8066;SDS011;4076;48.076;9.118;2023-07-08T07:48:44;8.70;;;6.23;;
8066;SDS011;4076;48.076;9.118;2023-07-08T07:51:10;9.30;;;6.20;;
8066;SDS011;4076;48.076;9.118;2023-07-08T07:53:39;8.83;;;5.50;;
8066;SDS011;4076;48.076;9.118;2023-07-08T07:56:04;8.10;;;6.57;;
8066;SDS011;4076;48.076;9.118;2023-07-08T07:58:30;6.90;;;5.20;;
8066;SDS011;4076;48.076;9.118;2023-07-08T08:00:57;11.57;;;5.63;;
8066;SDS011;4076;48.076;9.118;2023-07-08T08:03:22;6.53;;;5.00;;
8066;SDS011;4076;48.076;9.118;2023-07-08T08:05:48;5.17;;;4.00;;
8066;SDS011;4076;48.076;9.118;2023-07-08T08:08:14;13.50;;;5.83;;
8066;SDS011;4076;48.076;9.118;2023-07-08T08:10:41;6.90;;;4.63;;
8066;SDS011;4076;48.076;9.118;2023-07-08T08:13:07;9.03;;;4.97;;
8066;SDS011;4076;48.076;9.118;2023-07-08T08:15:33;5.90;;;3.57;;
8066;SDS011;4076;48.076;9.118;2023-07-08T08:17:59;4.77;;;3.13;;
8066;SDS011;4076;48.076;9.118;2023-07-08T08:20:25;5.57;;;3.40;;
8066;SDS011;4076;48.076;9.118;2023-07-08T08:22:51;4.23;;;2.83;;
8066;SDS011;4076;48.076;9.118;2023-07-08T08:25:18;5.60;;;2.63;;
8066;SDS011;4076;48.076;9.118;2023-07-08T08:27:44;5.90;;;2.83;;
8066;SDS011;4076;48.076;9.118;2023-07-08T08:30:10;5.40;;;2.50;;
8066;SDS011;4076;48.076;9.118;2023-07-08T08:32:36;3.00;;;2.60;;
8066;SDS011;4076;48.076;9.118;2023-07-08T08:35:02;3.17;;;2.40;;
8066;SDS011;4076;48.076;9.118;2023-07-08T08:37:28;5.20;;;2.60;;
8066;SDS011;4076;48.076;9.118;2023-07-08T08:39:54;4.47;;;2.30;;
8066;SDS011;4076;48.076;9.118;2023-07-08T08:44:57;4.10;;;2.63;;
8066;SDS011;4076;48.076;9.118;2023-07-08T08:47:27;4.47;;;2.50;;
8066;SDS011;4076;48.076;9.118;2023-07-08T08:50:04;14.23;;;3.10;;
8066;SDS011;4076;48.076;9.118;2023-07-08T08:52:33;3.03;;;2.50;;
8066;SDS011;4076;48.076;9.118;2023-07-08T08:54:59;3.97;;;3.43;;
8066;SDS011;4076;48.076;9.118;2023-07-08T09:00:07;5.80;;;2.67;;
8066;SDS011;4076;48.076;9.118;2023-07-08T09:02:53;4.80;;;1.90;;
8066;SDS011;4076;48.076;9.118;2023-07-08T09:05:27;3.23;;;2.23;;
8066;SDS011;4076;48.076;9.118;2023-07-08T09:08:00;3.30;;;2.33;;
8066;SDS011;4076;48.076;9.118;2023-07-08T09:10:53;3.23;;;2.30;;
8066;SDS011;4076;48.076;9.118;2023-07-08T09:13:26;3.37;;;2.47;;
8066;SDS011;4076;48.076;9.118;2023-07-08T09:19:12;4.23;;;2.63;;
8066;SDS011;4076;48.076;9.118;2023-07-08T09:25:07;3.00;;;2.10;;
8066;SDS011;4076;48.076;9.118;2023-07-08T09:27:10;3.07;;;2.27;;
8066;SDS011;4076;48.076;9.118;2023-07-08T09:29:36;3.40;;;1.80;;
8066;SDS011;4076;48.076;9.118;2023-07-08T09:32:14;3.40;;;2.13;;
8066;SDS011;4076;48.076;9.118;2023-07-08T09:34:51;4.00;;;2.10;;
8066;SDS011;4076;48.076;9.118;2023-07-08T09:37:23;3.33;;;3.00;;
8066;SDS011;4076;48.076;9.118;2023-07-08T09:39:51;4.20;;;2.50;;
8066;SDS011;4076;48.076;9.118;2023-07-08T09:42:21;3.30;;;2.57;;
8066;SDS011;4076;48.076;9.118;2023-07-08T09:45:00;3.90;;;2.23;;
8066;SDS011;4076;48.076;9.118;2023-07-08T09:47:36;3.20;;;2.90;;
8066;SDS011;4076;48.076;9.118;2023-07-08T09:50:15;2.20;;;1.80;;
8066;SDS011;4076;48.076;9.118;2023-07-08T09:52:43;3.10;;;2.37;;
8066;SDS011;4076;48.076;9.118;2023-07-08T09:55:12;3.63;;;1.67;;
8066;SDS011;4076;48.076;9.118;2023-07-08T09:57:37;2.13;;;1.70;;
8066;SDS011;4076;48.076;9.118;2023-07-08T10:00:08;6.30;;;3.53;;
8066;SDS011;4076;48.076;9.118;2023-07-08T10:02:51;3.00;;;2.33;;
8066;SDS011;4076;48.076;9.118;2023-07-08T10:05:22;3.17;;;2.30;;
8066;SDS011;4076;48.076;9.118;2023-07-08T10:08:08;2.57;;;1.83;;
8066;SDS011;4076;48.076;9.118;2023-07-08T10:10:39;2.53;;;2.30;;
8066;SDS011;4076;48.076;9.118;2023-07-08T10:15:42;3.23;;;2.90;;
8066;SDS011;4076;48.076;9.118;2023-07-08T10:18:15;3.10;;;2.80;;
8066;SDS011;4076;48.076;9.118;2023-07-08T10:20:46;2.83;;;2.40;;
8066;SDS011;4076;48.076;9.118;2023-07-08T10:26:27;2.80;;;2.13;;
8066;SDS011;4076;48.076;9.118;2023-07-08T10:34:25;2.60;;;2.40;;
8066;SDS011;4076;48.076;9.118;2023-07-08T10:37:13;2.50;;;2.03;;
8066;SDS011;4076;48.076;9.118;2023-07-08T10:40:15;4.07;;;3.77;;
8066;SDS011;4076;48.076;9.118;2023-07-08T10:43:11;3.10;;;1.87;;
8066;SDS011;4076;48.076;9.118;2023-07-08T10:48:42;4.27;;;2.90;;
8066;SDS011;4076;48.076;9.118;2023-07-08T10:54:20;2.70;;;2.10;;
8066;SDS011;4076;48.076;9.118;2023-07-08T10:56:55;1.80;;;1.60;;
8066;SDS011;4076;48.076;9.118;2023-07-08T10:59:43;5.40;;;4.30;;
8066;SDS011;4076;48.076;9.118;2023-07-08T11:02:36;1.67;;;1.43;;
8066;SDS011;4076;48.076;9.118;2023-07-08T11:10:58;2.33;;;2.13;;
8066;SDS011;4076;48.076;9.118;2023-07-08T11:13:31;2.40;;;1.73;;
8066;SDS011;4076;48.076;9.118;2023-07-08T11:21:26;3.00;;;2.20;;
8066;SDS011;4076;48.076;9.118;2023-07-08T11:29:38;2.40;;;2.20;;
8066;SDS011;4076;48.076;9.118;2023-07-08T11:32:11;2.70;;;2.50;;
8066;SDS011;4076;48.076;9.118;2023-07-08T11:34:41;2.80;;;1.73;;
8066;SDS011;4076;48.076;9.118;2023-07-08T11:37:09;2.40;;;2.20;;
8066;SDS011;4076;48.076;9.118;2023-07-08T11:39:44;4.40;;;2.20;;
8066;SDS011;4076;48.076;9.118;2023-07-08T11:42:54;3.10;;;2.80;;
8066;SDS011;4076;48.076;9.118;2023-07-08T11:45:54;2.90;;;2.57;;
8066;SDS011;4076;48.076;9.118;2023-07-08T11:50:55;2.30;;;2.10;;
8066;SDS011;4076;48.076;9.118;2023-07-08T11:56:27;2.27;;;1.87;;
8066;SDS011;4076;48.076;9.118;2023-07-08T12:01:46;2.10;;;1.90;;
8066;SDS011;4076;48.076;9.118;2023-07-08T12:04:20;3.00;;;2.70;;
8066;SDS011;4076;48.076;9.118;2023-07-08T12:06:53;5.70;;;2.27;;
8066;SDS011;4076;48.076;9.118;2023-07-08T12:09:28;2.43;;;2.23;;
8066;SDS011;4076;48.076;9.118;2023-07-08T12:11:59;2.43;;;2.10;;
8066;SDS011;4076;48.076;9.118;2023-07-08T12:14:27;2.37;;;2.03;;
8066;SDS011;4076;48.076;9.118;2023-07-08T12:16:54;4.57;;;3.30;;
8066;SDS011;4076;48.076;9.118;2023-07-08T12:19:20;2.97;;;2.50;;
8066;SDS011;4076;48.076;9.118;2023-07-08T12:21:50;2.30;;;2.10;;
8066;SDS011;4076;48.076;9.118;2023-07-08T12:24:17;2.93;;;2.10;;
8066;SDS011;4076;48.076;9.118;2023-07-08T12:26:43;2.73;;;2.37;;
8066;SDS011;4076;48.076;9.118;2023-07-08T12:29:11;2.53;;;2.30;;
8066;SDS011;4076;48.076;9.118;2023-07-08T12:31:38;2.30;;;2.10;;
8066;SDS011;4076;48.076;9.118;2023-07-08T12:34:10;2.50;;;2.30;;
8066;SDS011;4076;48.076;9.118;2023-07-08T12:36:39;2.17;;;1.97;;
8066;SDS011;4076;48.076;9.118;2023-07-08T12:39:08;2.43;;;1.93;;
8066;SDS011;4076;48.076;9.118;2023-07-08T12:41:36;2.70;;;2.50;;
8066;SDS011;4076;48.076;9.118;2023-07-08T12:44:04;3.80;;;3.00;;
8066;SDS011;4076;48.076;9.118;2023-07-08T12:46:39;2.50;;;2.30;;
8066;SDS011;4076;48.076;9.118;2023-07-08T12:49:04;2.10;;;1.90;;
8066;SDS011;4076;48.076;9.118;2023-07-08T12:51:30;2.23;;;1.97;;
8066;SDS011;4076;48.076;9.118;2023-07-08T12:53:56;2.00;;;1.80;;
8066;SDS011;4076;48.076;9.118;2023-07-08T12:56:22;2.90;;;2.60;;
8066;SDS011;4076;48.076;9.118;2023-07-08T12:58:49;2.70;;;2.50;;
8066;SDS011;4076;48.076;9.118;2023-07-08T13:01:22;3.40;;;2.17;;
8066;SDS011;4076;48.076;9.118;2023-07-08T13:03:51;3.10;;;2.10;;
8066;SDS011;4076;48.076;9.118;2023-07-08T13:06:24;2.60;;;2.40;;
8066;SDS011;4076;48.076;9.118;2023-07-08T13:08:52;2.60;;;2.40;;
8066;SDS011;4076;48.076;9.118;2023-07-08T13:11:19;1.97;;;1.80;;
8066;SDS011;4076;48.076;9.118;2023-07-08T13:13:57;3.50;;;3.20;;
8066;SDS011;4076;48.076;9.118;2023-07-08T13:16:31;2.93;;;2.63;;
8066;SDS011;4076;48.076;9.118;2023-07-08T13:18:58;8.27;;;2.80;;
8066;SDS011;4076;48.076;9.118;2023-07-08T13:21:25;3.50;;;2.40;;
8066;SDS011;4076;48.076;9.118;2023-07-08T13:23:52;3.17;;;2.87;;
8066;SDS011;4076;48.076;9.118;2023-07-08T13:26:20;2.53;;;2.33;;
8066;SDS011;4076;48.076;9.118;2023-07-08T13:28:47;3.03;;;2.47;;
8066;SDS011;4076;48.076;9.118;2023-07-08T13:33:51;3.60;;;2.90;;
8066;SDS011;4076;48.076;9.118;2023-07-08T13:36:19;2.33;;;2.13;;
8066;SDS011;4076;48.076;9.118;2023-07-08T13:38:47;7.03;;;2.97;;
8066;SDS011;4076;48.076;9.118;2023-07-08T13:41:18;3.03;;;2.60;;
8066;SDS011;4076;48.076;9.118;2023-07-08T13:43:48;2.40;;;1.77;;
8066;SDS011;4076;48.076;9.118;2023-07-08T13:46:30;2.77;;;2.23;;
8066;SDS011;4076;48.076;9.118;2023-07-08T13:51:49;3.17;;;2.20;;
8066;SDS011;4076;48.076;9.118;2023-07-08T13:54:20;3.70;;;2.10;;
8066;SDS011;4076;48.076;9.118;2023-07-08T13:56:51;2.57;;;2.20;;
8066;SDS011;4076;48.076;9.118;2023-07-08T13:59:18;2.40;;;2.20;;
8066;SDS011;4076;48.076;9.118;2023-07-08T14:01:47;4.53;;;3.07;;
8066;SDS011;4076;48.076;9.118;2023-07-08T14:04:18;3.07;;;2.53;;
8066;SDS011;4076;48.076;9.118;2023-07-08T14:06:45;2.37;;;2.17;;
8066;SDS011;4076;48.076;9.118;2023-07-08T14:11:37;6.40;;;1.83;;
8066;SDS011;4076;48.076;9.118;2023-07-08T14:14:03;2.83;;;2.40;;
8066;SDS011;4076;48.076;9.118;2023-07-08T14:16:29;3.83;;;2.87;;
8066;SDS011;4076;48.076;9.118;2023-07-08T14:18:58;2.40;;;2.10;;
8066;SDS011;4076;48.076;9.118;2023-07-08T14:21:28;2.93;;;2.43;;
8066;SDS011;4076;48.076;9.118;2023-07-08T14:23:54;2.40;;;2.20;;
8066;SDS011;4076;48.076;9.118;2023-07-08T14:26:20;3.00;;;2.67;;
8066;SDS011;4076;48.076;9.118;2023-07-08T14:28:45;3.03;;;2.77;;
8066;SDS011;4076;48.076;9.118;2023-07-08T14:31:12;2.83;;;1.97;;
8066;SDS011;4076;48.076;9.118;2023-07-08T14:33:45;3.90;;;3.20;;
8066;SDS011;4076;48.076;9.118;2023-07-08T14:36:11;3.27;;;2.97;;
8066;SDS011;4076;48.076;9.118;2023-07-08T14:38:37;3.27;;;2.97;;
8066;SDS011;4076;48.076;9.118;2023-07-08T14:41:03;3.07;;;2.33;;
8066;SDS011;4076;48.076;9.118;2023-07-08T14:43:30;3.30;;;2.37;;
8066;SDS011;4076;48.076;9.118;2023-07-08T14:45:57;2.43;;;2.23;;
8066;SDS011;4076;48.076;9.118;2023-07-08T14:48:27;3.40;;;2.60;;
8066;SDS011;4076;48.076;9.118;2023-07-08T14:50:53;9.83;;;3.17;;
8066;SDS011;4076;48.076;9.118;2023-07-08T14:53:19;3.50;;;3.17;;
8066;SDS011;4076;48.076;9.118;2023-07-08T14:55:47;3.40;;;2.87;;
8066;SDS011;4076;48.076;9.118;2023-07-08T14:58:20;3.87;;;2.47;;
8066;SDS011;4076;48.076;9.118;2023-07-08T15:00:57;4.40;;;3.30;;
8066;SDS011;4076;48.076;9.118;2023-07-08T15:03:24;3.13;;;2.57;;
8066;SDS011;4076;48.076;9.118;2023-07-08T15:05:51;3.60;;;3.27;;
8066;SDS011;4076;48.076;9.118;2023-07-08T15:08:17;2.80;;;2.47;;
8066;SDS011;4076;48.076;9.118;2023-07-08T15:10:44;3.53;;;2.90;;
8066;SDS011;4076;48.076;9.118;2023-07-08T15:13:14;2.90;;;2.60;;
8066;SDS011;4076;48.076;9.118;2023-07-08T15:15:42;3.37;;;3.07;;
8066;SDS011;4076;48.076;9.118;2023-07-08T15:18:12;3.10;;;2.80;;
8066;SDS011;4076;48.076;9.118;2023-07-08T15:20:40;2.60;;;2.40;;
8066;SDS011;4076;48.076;9.118;2023-07-08T15:23:07;3.30;;;2.50;;
8066;SDS011;4076;48.076;9.118;2023-07-08T15:25:34;3.43;;;3.13;;
8066;SDS011;4076;48.076;9.118;2023-07-08T15:28:01;2.93;;;2.73;;
8066;SDS011;4076;48.076;9.118;2023-07-08T15:30:29;5.60;;;3.80;;
8066;SDS011;4076;48.076;9.118;2023-07-08T15:32:55;4.00;;;3.30;;
8066;SDS011;4076;48.076;9.118;2023-07-08T15:35:25;6.30;;;3.63;;
8066;SDS011;4076;48.076;9.118;2023-07-08T15:37:57;2.70;;;2.40;;
8066;SDS011;4076;48.076;9.118;2023-07-08T15:40:24;3.03;;;2.83;;
8066;SDS011;4076;48.076;9.118;2023-07-08T15:42:53;5.60;;;2.83;;
8066;SDS011;4076;48.076;9.118;2023-07-08T15:45:28;3.40;;;2.83;;
8066;SDS011;4076;48.076;9.118;2023-07-08T15:47:55;5.97;;;3.40;;
8066;SDS011;4076;48.076;9.118;2023-07-08T15:50:22;3.37;;;3.07;;
8066;SDS011;4076;48.076;9.118;2023-07-08T15:52:49;3.53;;;3.23;;
8066;SDS011;4076;48.076;9.118;2023-07-08T15:55:17;4.17;;;2.53;;
8066;SDS011;4076;48.076;9.118;2023-07-08T15:57:52;3.07;;;2.77;;
8066;SDS011;4076;48.076;9.118;2023-07-08T16:00:37;4.77;;;2.90;;
8066;SDS011;4076;48.076;9.118;2023-07-08T16:03:06;3.67;;;3.37;;
8066;SDS011;4076;48.076;9.118;2023-07-08T16:05:37;4.03;;;3.57;;
8066;SDS011;4076;48.076;9.118;2023-07-08T16:08:03;8.10;;;3.30;;
8066;SDS011;4076;48.076;9.118;2023-07-08T16:10:28;4.47;;;4.17;;
8066;SDS011;4076;48.076;9.118;2023-07-08T16:12:55;2.30;;;2.10;;
8066;SDS011;4076;48.076;9.118;2023-07-08T16:15:29;2.77;;;2.57;;
8066;SDS011;4076;48.076;9.118;2023-07-08T16:17:57;2.53;;;2.33;;
8066;SDS011;4076;48.076;9.118;2023-07-08T16:20:24;2.47;;;2.23;;
8066;SDS011;4076;48.076;9.118;2023-07-08T16:22:51;3.47;;;3.17;;
8066;SDS011;4076;48.076;9.118;2023-07-08T16:25:18;2.50;;;2.30;;
8066;SDS011;4076;48.076;9.118;2023-07-08T16:27:50;4.40;;;3.20;;
8066;SDS011;4076;48.076;9.118;2023-07-08T16:30:17;2.50;;;2.30;;